Kezdőlap
METAR-TAF:

METAR-TAF

Repülőterek :

Bíldudalur, Izland

földrajzi szélesség: 65-38-30N, földrajzi hosszúság: 23-32-45W, magasság: 8 m

Jelenlegi meteorológiai megfigyelések

A jelentés 41 perccel ezelõtt készült, 09:00 UTC
Északkeleti szél 11 kt
Hőmérséklet 1°C
Páratartalom 64%
Légköri nyomás 998 hPa
Látótávolság 10 km, vagy több
Szakadozott felhőzet 3000 lábon

METAR: BIBD 090900Z 04011KT 9999 BKN030 01/M05 Q0998

Idő: 09:41 (09:41 UTC)

Előrejelzés

A jelentés 20 órával és 26 perccel ezelõtt készült, 13:15 UTC
Az előrejelzés 08-én 14 óra UTC és 08-én 23 óra UTC között érvényes
Észak-északkeleti szél 12 kt
Látótávolság 10 km, vagy több
Szórványos felhőzet 1500 lábon
Szakadozott felhőzet 2000 lábon
08-én 20 óra UTC és 08-én 22 óra UTC között fokozatosan kialakuló
Különbözõ irányokból fújó szél 2 kt

TAF: BIBD 081315Z 0814/0823 02012KT 9999 SCT015 BKN020 BECMG 0820/0822 VRB02KT

Meteorológiai megfigyelések és előrejelzések több, mint 4000 repülőtéren (METAR és TAF jelentéseket).

A térképen piros és sárga pontok jelzik az elérhető meteorológiai állomásokat.

Mozgassa az egeret a pont fölött, hogy megjelenjen az állomás neve.

Azután kattintson az időjárási megfigyelések és előrejelzések megtekintéséhez.

A térkép megváltoztatása: kattintson a fekete keresztel jelölt zöld gombra ráközelítéshez, a vonallal jelölt zöld gombra távolításhoz, vagy a zöld nyilakra a szomszédos térképek eléréséhez.


METAR-TAF: